createdAt,value
2017-11-11T00:00:05.735Z,19.10
2017-11-11T00:02:33.552Z,20.53
2017-11-11T00:05:01.340Z,18.70
2017-11-11T00:07:29.106Z,20.90
2017-11-11T00:09:56.847Z,17.73
2017-11-11T00:12:24.718Z,20.23
2017-11-11T00:14:52.639Z,17.50
2017-11-11T00:17:20.480Z,18.03
2017-11-11T00:19:48.259Z,19.30
2017-11-11T00:22:16.162Z,18.10
2017-11-11T00:24:43.988Z,17.10
2017-11-11T00:27:12.586Z,16.20
2017-11-11T00:29:40.364Z,15.37
2017-11-11T00:32:08.127Z,16.60
2017-11-11T00:34:36.730Z,17.50
2017-11-11T00:37:04.537Z,17.77
2017-11-11T00:39:32.368Z,18.57
2017-11-11T00:42:00.250Z,16.50
2017-11-11T00:44:28.002Z,17.13
2017-11-11T00:46:55.767Z,16.30
2017-11-11T00:49:23.706Z,15.57
2017-11-11T00:51:51.500Z,22.13
2017-11-11T00:54:19.337Z,15.10
2017-11-11T00:56:47.169Z,17.40
2017-11-11T00:59:14.999Z,14.30
2017-11-11T01:01:42.859Z,16.67
2017-11-11T01:04:10.679Z,16.57
2017-11-11T01:06:38.467Z,16.57
2017-11-11T01:09:07.075Z,19.57
2017-11-11T01:11:35.030Z,17.37
2017-11-11T01:14:02.845Z,15.13
2017-11-11T01:16:30.667Z,15.87
2017-11-11T01:18:58.581Z,16.40
2017-11-11T01:21:26.372Z,14.50
2017-11-11T01:23:54.128Z,20.93
2017-11-11T01:26:21.898Z,20.03
2017-11-11T01:28:49.708Z,17.00
2017-11-11T01:31:17.586Z,15.63
2017-11-11T01:33:46.217Z,15.67
2017-11-11T01:36:14.105Z,16.47
2017-11-11T01:38:41.941Z,15.40
2017-11-11T01:41:09.744Z,15.03
2017-11-11T01:43:37.616Z,16.07
2017-11-11T01:46:05.497Z,13.60
2017-11-11T01:48:34.136Z,14.83
2017-11-11T01:51:01.990Z,14.27
2017-11-11T01:53:29.844Z,18.30
2017-11-11T01:55:57.675Z,14.57
2017-11-11T01:58:25.467Z,15.50
2017-11-11T02:00:53.389Z,14.17
2017-11-11T02:03:21.251Z,13.57
2017-11-11T02:05:49.138Z,14.80
2017-11-11T02:08:17.124Z,14.30
2017-11-11T02:10:45.006Z,14.33
2017-11-11T02:13:12.840Z,14.47
2017-11-11T02:15:40.645Z,15.37
2017-11-11T02:18:08.517Z,16.30
2017-11-11T02:20:36.479Z,14.63
2017-11-11T02:23:04.340Z,16.67
2017-11-11T02:25:32.256Z,14.30
2017-11-11T02:28:00.161Z,13.20
2017-11-11T02:30:28.062Z,14.03
2017-11-11T02:32:56.017Z,14.07
2017-11-11T02:35:23.941Z,13.90
2017-11-11T02:37:51.903Z,13.67
2017-11-11T02:40:19.981Z,25.47
2017-11-11T02:42:47.878Z,14.70
2017-11-11T02:45:15.735Z,15.50
2017-11-11T02:47:43.588Z,13.17
2017-11-11T02:50:11.540Z,12.60
2017-11-11T02:52:39.458Z,12.47
2017-11-11T02:55:07.375Z,12.40
2017-11-11T02:57:35.279Z,12.43
2017-11-11T03:00:03.217Z,13.73
2017-11-11T03:02:31.121Z,16.30
2017-11-11T03:04:59.058Z,12.57
2017-11-11T03:07:26.844Z,12.63
2017-11-11T03:09:54.693Z,16.27
2017-11-11T03:12:22.519Z,14.03
2017-11-11T03:14:50.299Z,11.00
2017-11-11T03:17:18.120Z,12.33
2017-11-11T03:19:45.901Z,12.70
2017-11-11T03:22:13.729Z,11.63
2017-11-11T03:24:41.598Z,13.30
2017-11-11T03:27:09.357Z,12.70
2017-11-11T03:29:37.197Z,12.90
2017-11-11T03:32:05.114Z,12.60
2017-11-11T03:34:32.981Z,13.80
2017-11-11T03:37:01.660Z,14.43
2017-11-11T03:39:29.501Z,12.87
2017-11-11T03:41:57.324Z,12.93
2017-11-11T03:44:25.290Z,11.40
2017-11-11T03:46:53.099Z,13.83
2017-11-11T03:49:20.903Z,12.03
2017-11-11T03:51:48.770Z,11.83
2017-11-11T03:54:16.549Z,11.43
2017-11-11T03:56:44.402Z,12.40
2017-11-11T03:59:12.188Z,11.87
2017-11-11T04:01:40.714Z,13.73
2017-11-11T04:04:08.522Z,12.73
2017-11-11T04:06:36.373Z,11.70
2017-11-11T04:09:04.213Z,11.10
2017-11-11T04:11:31.983Z,12.27
2017-11-11T04:13:59.849Z,13.20
2017-11-11T04:16:27.696Z,11.20
2017-11-11T04:18:55.497Z,16.80
2017-11-11T04:21:23.291Z,12.07
2017-11-11T04:23:51.128Z,11.70
2017-11-11T04:26:19.012Z,11.80
2017-11-11T04:28:46.835Z,15.80
2017-11-11T04:31:14.584Z,12.20
2017-11-11T04:33:42.437Z,12.17
2017-11-11T04:36:10.283Z,12.13
2017-11-11T04:38:38.102Z,12.07
2017-11-11T04:41:05.898Z,13.73
2017-11-11T04:43:33.750Z,14.07
2017-11-11T04:46:01.565Z,12.17
2017-11-11T04:48:29.392Z,12.57
2017-11-11T04:50:57.144Z,11.60
2017-11-11T04:53:24.952Z,12.27
2017-11-11T04:55:52.797Z,11.87
2017-11-11T04:58:20.693Z,12.63
2017-11-11T05:00:48.518Z,12.73
2017-11-11T05:03:16.302Z,15.10
2017-11-11T05:05:44.106Z,12.90
2017-11-11T05:08:11.986Z,13.93
2017-11-11T05:10:39.834Z,12.20
2017-11-11T05:13:07.636Z,11.10
2017-11-11T05:15:35.474Z,12.37
2017-11-11T05:18:03.340Z,12.60
2017-11-11T05:20:31.293Z,12.70
2017-11-11T05:22:59.054Z,12.90
2017-11-11T05:25:26.958Z,17.23
2017-11-11T05:27:54.725Z,14.20
2017-11-11T05:30:22.639Z,14.03
2017-11-11T05:32:50.537Z,12.37
2017-11-11T05:35:18.407Z,12.67
2017-11-11T05:37:46.171Z,12.40
2017-11-11T05:40:13.966Z,13.43
2017-11-11T05:42:41.789Z,12.03
2017-11-11T05:45:09.552Z,10.97
2017-11-11T05:47:37.427Z,13.07
2017-11-11T05:50:05.253Z,12.37
2017-11-11T05:52:33.034Z,10.67
2017-11-11T05:55:00.892Z,12.03
2017-11-11T05:57:29.529Z,11.77
2017-11-11T05:59:57.336Z,12.53
2017-11-11T06:05:53.300Z,11.00
2017-11-11T06:08:21.394Z,12.40
2017-11-11T06:10:53.441Z,13.13
2017-11-11T06:13:21.466Z,11.23
2017-11-11T06:16:01.487Z,11.27
2017-11-11T06:18:29.435Z,10.30
2017-11-11T06:20:58.125Z,9.97
2017-11-11T06:23:26.141Z,10.87
2017-11-11T06:25:55.821Z,12.03
2017-11-11T06:28:24.419Z,11.53
2017-11-11T06:30:52.322Z,10.13
2017-11-11T06:33:20.164Z,9.10
2017-11-11T06:35:47.997Z,9.60
2017-11-11T06:38:17.487Z,14.27
2017-11-11T06:40:45.377Z,9.77
2017-11-11T06:43:13.200Z,9.57
2017-11-11T06:45:41.078Z,9.03
2017-11-11T06:48:08.971Z,10.10
2017-11-11T06:50:36.806Z,10.20
2017-11-11T06:53:04.628Z,9.70
2017-11-11T06:55:33.316Z,10.00
2017-11-11T06:58:01.937Z,8.97
2017-11-11T07:00:29.784Z,9.77
2017-11-11T07:02:58.511Z,8.67
2017-11-11T07:05:26.347Z,9.53
2017-11-11T07:07:54.233Z,9.50
2017-11-11T07:10:22.129Z,8.80
2017-11-11T07:12:49.934Z,8.53
2017-11-11T07:15:17.765Z,8.93
2017-11-11T07:17:45.646Z,9.00
2017-11-11T07:20:13.469Z,7.67
2017-11-11T07:22:41.225Z,8.80
2017-11-11T07:25:09.152Z,12.30
2017-11-11T07:27:37.007Z,9.63
2017-11-11T07:30:04.837Z,8.33
2017-11-11T07:32:32.674Z,8.80
2017-11-11T07:35:00.508Z,8.07
2017-11-11T07:37:28.305Z,8.47
2017-11-11T07:39:56.203Z,8.27
2017-11-11T07:42:24.987Z,11.23
2017-11-11T07:44:52.848Z,8.60
2017-11-11T07:47:20.739Z,8.97
2017-11-11T07:49:48.598Z,8.60
2017-11-11T07:52:16.439Z,10.20
2017-11-11T07:54:44.244Z,8.13
2017-11-11T07:57:11.989Z,8.77
2017-11-11T07:59:39.831Z,9.73
2017-11-11T08:02:07.625Z,9.20
2017-11-11T08:04:36.246Z,8.93
2017-11-11T08:07:04.072Z,7.97
2017-11-11T08:09:32.660Z,8.67
2017-11-11T08:12:00.492Z,9.50
2017-11-11T08:14:28.410Z,9.40
2017-11-11T08:16:57.058Z,7.43
2017-11-11T08:19:24.939Z,7.80
2017-11-11T08:21:52.777Z,8.80
2017-11-11T08:24:20.729Z,9.40
2017-11-11T08:26:48.581Z,17.50
2017-11-11T08:29:16.421Z,9.57
2017-11-11T08:31:44.399Z,9.80
2017-11-11T08:34:12.189Z,10.93
2017-11-11T08:36:40.128Z,10.60
2017-11-11T08:39:07.992Z,11.80
2017-11-11T08:41:35.839Z,11.63
2017-11-11T08:44:03.662Z,11.67
2017-11-11T08:46:32.329Z,27.00
2017-11-11T08:49:00.122Z,26.17
2017-11-11T08:51:28.112Z,14.83
2017-11-11T08:53:55.989Z,25.93
2017-11-11T08:56:24.012Z,17.30
2017-11-11T08:58:52.679Z,21.80
2017-11-11T09:01:20.522Z,20.93
2017-11-11T09:03:48.450Z,18.90
2017-11-11T09:06:16.408Z,20.47
2017-11-11T09:08:44.235Z,22.43
2017-11-11T09:11:14.384Z,21.67
2017-11-11T09:14:03.408Z,21.27
2017-11-11T09:26:39.065Z,26.97
2017-11-11T09:39:11.226Z,30.27
2017-11-11T09:41:39.076Z,28.60
2017-11-11T09:44:06.950Z,31.60
2017-11-11T09:46:34.844Z,31.63
2017-11-11T09:49:02.647Z,36.13
2017-11-11T09:51:30.452Z,33.23
2017-11-11T09:53:58.279Z,33.03
2017-11-11T09:56:26.015Z,31.27
2017-11-11T09:58:53.771Z,32.97
2017-11-11T10:01:21.626Z,37.70
2017-11-11T10:03:49.414Z,36.17
2017-11-11T10:06:17.222Z,36.60
2017-11-11T10:08:45.078Z,39.07
2017-11-11T10:11:13.698Z,35.67
2017-11-11T10:13:41.475Z,41.77
2017-11-11T10:16:13.047Z,34.30
2017-11-11T10:18:40.971Z,40.77
2017-11-11T10:21:09.828Z,42.87
2017-11-11T10:23:38.206Z,36.33
2017-11-11T10:26:06.036Z,37.63
2017-11-11T10:28:33.918Z,38.73
2017-11-11T10:31:01.899Z,39.07
2017-11-11T10:33:29.710Z,33.87
2017-11-11T10:35:57.634Z,36.13
2017-11-11T10:38:25.542Z,36.97
2017-11-11T10:40:55.186Z,37.37
2017-11-11T10:43:23.019Z,32.53
2017-11-11T10:45:51.552Z,34.87
2017-11-11T10:48:19.487Z,37.80
2017-11-11T10:50:49.065Z,40.87
2017-11-11T11:06:39.653Z,35.77
2017-11-11T11:09:07.475Z,35.27
2017-11-11T11:11:35.225Z,32.37
2017-11-11T11:14:03.016Z,37.40
2017-11-11T11:16:30.945Z,31.13
2017-11-11T11:18:58.825Z,35.27
2017-11-11T11:21:26.702Z,31.57
2017-11-11T11:23:55.312Z,35.80
2017-11-11T11:26:23.125Z,36.63
2017-11-11T11:28:50.891Z,36.27
2017-11-11T11:31:18.679Z,42.43
2017-11-11T11:33:52.277Z,37.87
2017-11-11T11:36:20.147Z,33.73
2017-11-11T11:38:48.045Z,35.07
2017-11-11T11:41:16.096Z,36.40
2017-11-11T11:43:47.033Z,39.87
2017-11-11T12:22:09.374Z,34.07
2017-11-11T12:27:44.595Z,35.77
2017-11-11T12:30:12.507Z,33.40
2017-11-11T12:32:40.549Z,32.70
2017-11-11T12:42:15.488Z,35.00
2017-11-11T12:45:08.176Z,35.17
2017-11-11T12:54:23.448Z,35.13
2017-11-11T12:56:51.477Z,33.63
2017-11-11T12:59:19.777Z,32.53
2017-11-11T13:01:50.102Z,35.17
2017-11-11T13:04:18.308Z,33.00
2017-11-11T13:06:46.685Z,29.40
2017-11-11T13:09:27.539Z,34.87
2017-11-11T13:11:55.944Z,34.70
2017-11-11T13:14:37.976Z,33.40
2017-11-11T13:38:12.429Z,33.70
2017-11-11T13:47:24.133Z,36.70
2017-11-11T13:59:56.142Z,34.73
2017-11-11T14:02:25.384Z,34.37
2017-11-11T14:04:53.614Z,34.80
2017-11-11T14:07:21.835Z,35.90
2017-11-11T14:09:58.127Z,35.73
2017-11-11T14:12:27.286Z,35.93
2017-11-11T14:15:02.386Z,35.10
2017-11-11T14:17:32.040Z,36.40
2017-11-11T14:23:09.621Z,37.83
2017-11-11T14:25:37.944Z,36.20
2017-11-11T14:28:06.749Z,38.27
2017-11-11T14:30:34.622Z,36.40
2017-11-11T14:33:02.479Z,43.00
2017-11-11T14:35:30.422Z,33.10
2017-11-11T14:37:58.292Z,39.27
2017-11-11T14:40:26.209Z,34.00
2017-11-11T14:42:54.938Z,30.93
2017-11-11T14:45:22.807Z,32.70
2017-11-11T14:47:50.772Z,36.93
2017-11-11T14:50:18.711Z,34.30
2017-11-11T14:52:46.637Z,36.93
2017-11-11T14:55:14.508Z,34.97
2017-11-11T14:57:42.412Z,35.77
2017-11-11T15:00:10.353Z,37.43
2017-11-11T15:02:38.202Z,39.47
2017-11-11T15:05:06.114Z,38.00
2017-11-11T15:07:34.137Z,38.93
2017-11-11T15:10:01.945Z,38.40
2017-11-11T15:12:29.832Z,42.23
2017-11-11T15:14:57.797Z,47.17
2017-11-11T15:17:25.915Z,38.77
2017-11-11T15:19:53.764Z,45.00
2017-11-11T15:22:21.699Z,39.93
2017-11-11T15:24:49.537Z,41.20
2017-11-11T15:27:17.458Z,42.60
2017-11-11T15:29:45.470Z,43.60
2017-11-11T15:32:13.350Z,43.70
2017-11-11T15:34:41.155Z,44.80
2017-11-11T15:37:09.137Z,39.93
2017-11-11T15:39:37.806Z,46.93
2017-11-11T15:42:05.676Z,40.90
2017-11-11T15:44:33.589Z,41.23
2017-11-11T15:47:01.416Z,41.40
2017-11-11T15:49:30.048Z,48.67
2017-11-11T15:51:57.879Z,46.40
2017-11-11T15:54:26.553Z,51.43
2017-11-11T15:56:54.514Z,41.40
2017-11-11T15:59:22.350Z,45.20
2017-11-11T16:01:50.335Z,44.70
2017-11-11T16:04:18.181Z,43.53
2017-11-11T16:06:46.022Z,46.93
2017-11-11T16:09:14.758Z,45.87
2017-11-11T16:11:42.577Z,46.77
2017-11-11T16:14:10.453Z,45.97
2017-11-11T16:16:38.282Z,48.87
2017-11-11T16:19:06.104Z,46.13
2017-11-11T16:21:34.030Z,45.03
2017-11-11T16:24:02.029Z,43.57
2017-11-11T16:26:29.894Z,48.80
2017-11-11T16:28:58.280Z,49.60
2017-11-11T16:31:26.127Z,47.27
2017-11-11T16:33:54.053Z,47.47
2017-11-11T16:36:21.907Z,50.53
2017-11-11T16:38:49.824Z,54.23
2017-11-11T16:41:17.712Z,48.47
2017-11-11T16:43:45.582Z,47.40
2017-11-11T16:46:15.098Z,54.30
2017-11-11T16:48:42.984Z,46.60
2017-11-11T16:51:12.017Z,46.40
2017-11-11T16:53:39.838Z,43.47
2017-11-11T16:56:08.498Z,39.97
2017-11-11T16:58:37.251Z,45.83
2017-11-11T17:01:05.096Z,43.60
2017-11-11T17:03:32.995Z,44.13
2017-11-11T17:06:00.905Z,41.90
2017-11-11T17:08:29.719Z,40.77
2017-11-11T17:10:58.329Z,39.60
2017-11-11T17:13:26.178Z,37.73
2017-11-11T17:15:54.719Z,39.67
2017-11-11T17:18:22.512Z,40.80
2017-11-11T17:21:09.636Z,42.87
2017-11-11T17:24:14.151Z,42.20
2017-11-11T17:53:58.094Z,43.47
2017-11-11T17:56:25.972Z,43.30
2017-11-11T17:58:53.744Z,49.47
2017-11-11T18:01:21.512Z,50.83
2017-11-11T18:03:49.348Z,45.77
2017-11-11T18:06:17.170Z,48.70
2017-11-11T18:08:45.007Z,49.37
2017-11-11T18:11:12.824Z,50.67
2017-11-11T18:13:40.619Z,46.40
2017-11-11T18:16:08.380Z,45.70
2017-11-11T18:18:36.201Z,51.63
2017-11-11T18:21:04.722Z,47.03
2017-11-11T18:23:32.473Z,50.63
2017-11-11T18:26:00.227Z,49.10
2017-11-11T18:28:27.987Z,46.83
2017-11-11T18:30:55.887Z,54.17
2017-11-11T18:33:23.661Z,45.10
2017-11-11T18:35:51.466Z,48.13
2017-11-11T18:38:19.242Z,43.13
2017-11-11T18:40:47.037Z,50.67
2017-11-11T18:43:15.623Z,53.30
2017-11-11T18:45:43.439Z,47.40
2017-11-11T18:48:11.195Z,52.50
2017-11-11T18:50:39.019Z,49.63
2017-11-11T18:53:07.600Z,47.63
2017-11-11T18:55:35.416Z,47.80
2017-11-11T18:58:03.268Z,50.67
2017-11-11T19:00:31.089Z,49.70
2017-11-11T19:02:58.899Z,54.90
2017-11-11T19:05:26.629Z,54.23
2017-11-11T19:07:54.548Z,55.23
2017-11-11T19:10:22.337Z,50.00
2017-11-11T19:12:50.158Z,52.70
2017-11-11T19:15:17.945Z,51.40
2017-11-11T19:17:45.764Z,58.20
2017-11-11T19:20:13.575Z,55.63
2017-11-11T19:22:41.336Z,55.33
2017-11-11T19:25:09.209Z,55.70
2017-11-11T19:27:36.956Z,60.77
2017-11-11T19:30:04.745Z,51.90
2017-11-11T19:32:32.488Z,65.20
2017-11-11T19:35:00.237Z,60.40
2017-11-11T19:37:27.976Z,72.10
2017-11-11T19:39:55.786Z,62.83
2017-11-11T19:42:23.619Z,51.83
2017-11-11T19:44:51.437Z,57.33
2017-11-11T19:47:19.245Z,68.63
2017-11-11T19:49:47.033Z,63.30
2017-11-11T19:52:14.879Z,53.03
2017-11-11T19:54:42.696Z,56.17
2017-11-11T19:57:10.476Z,67.47
2017-11-11T19:59:38.352Z,55.27
2017-11-11T20:02:06.108Z,68.60
2017-11-11T20:04:33.850Z,59.00
2017-11-11T20:07:02.385Z,58.40
2017-11-11T20:09:30.130Z,70.40
2017-11-11T20:11:57.971Z,61.70
2017-11-11T20:14:25.739Z,62.77
2017-11-11T20:16:53.548Z,66.23
2017-11-11T20:19:21.299Z,51.73
2017-11-11T20:21:49.123Z,60.30
2017-11-11T20:24:16.938Z,49.53
2017-11-11T20:26:44.739Z,54.40
2017-11-11T20:29:12.645Z,53.37
2017-11-11T20:31:40.408Z,53.03
2017-11-11T20:34:08.256Z,45.33
2017-11-11T20:36:36.098Z,53.33
2017-11-11T20:39:03.967Z,57.70
2017-11-11T20:41:31.802Z,60.00
2017-11-11T20:43:59.634Z,63.37
2017-11-11T20:46:27.454Z,51.30
2017-11-11T20:48:55.219Z,56.67
2017-11-11T20:51:23.166Z,60.03
2017-11-11T20:53:50.913Z,44.10
2017-11-11T20:56:18.721Z,55.47
2017-11-11T20:58:46.538Z,57.67
2017-11-11T21:01:14.279Z,60.10
2017-11-11T21:03:42.112Z,57.03
2017-11-11T21:06:09.918Z,62.40
2017-11-11T21:08:37.643Z,55.70
2017-11-11T21:11:06.251Z,64.47
2017-11-11T21:13:33.992Z,53.13
2017-11-11T21:16:01.823Z,49.07
2017-11-11T21:18:29.593Z,46.63
2017-11-11T21:20:57.371Z,55.73
2017-11-11T21:23:25.190Z,62.90
2017-11-11T21:25:53.049Z,49.57
2017-11-11T21:28:20.922Z,54.50
2017-11-11T21:30:48.850Z,56.10
2017-11-11T21:33:16.738Z,47.13
2017-11-11T21:35:44.595Z,51.30
2017-11-11T21:38:13.217Z,45.37
2017-11-11T21:40:41.790Z,47.93
2017-11-11T21:43:09.610Z,47.30
2017-11-11T21:45:37.397Z,46.10
2017-11-11T21:48:05.204Z,44.77
2017-11-11T21:50:32.943Z,44.70
2017-11-11T21:53:00.770Z,40.80
2017-11-11T21:55:28.603Z,40.40
2017-11-11T21:57:56.421Z,39.80
2017-11-11T22:00:24.237Z,41.50
2017-11-11T22:02:52.038Z,42.87
2017-11-11T22:05:19.804Z,40.30
2017-11-11T22:07:47.747Z,36.27
2017-11-11T22:10:15.583Z,50.00
2017-11-11T22:12:43.433Z,80.97
2017-11-11T22:15:11.274Z,103.37
2017-11-11T22:17:41.220Z,81.60
2017-11-11T22:20:09.944Z,68.07
2017-11-11T22:22:42.413Z,78.80
2017-11-11T22:25:11.131Z,72.40
2017-11-11T22:27:39.749Z,43.40
2017-11-11T22:30:09.020Z,45.80
2017-11-11T22:32:36.888Z,47.40
2017-11-11T22:35:04.819Z,44.80
2017-11-11T22:37:32.761Z,43.53
2017-11-11T22:40:00.490Z,40.97
2017-11-11T22:42:28.318Z,36.63
2017-11-11T22:44:56.228Z,37.13
2017-11-11T22:47:24.075Z,38.40
2017-11-11T22:49:52.642Z,44.03
2017-11-11T22:52:20.482Z,44.03
2017-11-11T22:54:48.231Z,45.40
2017-11-11T22:57:16.172Z,48.97
2017-11-11T22:59:43.939Z,47.40
2017-11-11T23:02:11.906Z,47.67
2017-11-11T23:04:39.756Z,54.40
2017-11-11T23:07:07.524Z,59.93
2017-11-11T23:09:35.276Z,54.53
2017-11-11T23:12:03.128Z,56.73
2017-11-11T23:14:30.931Z,60.43
2017-11-11T23:16:58.653Z,90.00
2017-11-11T23:19:26.441Z,63.20
2017-11-11T23:21:54.264Z,61.80
2017-11-11T23:24:22.033Z,60.93
2017-11-11T23:26:49.782Z,66.97
2017-11-11T23:29:17.619Z,68.27
2017-11-11T23:31:45.342Z,63.53
2017-11-11T23:34:13.089Z,62.40
2017-11-11T23:36:40.898Z,62.23
2017-11-11T23:39:08.754Z,61.43
2017-11-11T23:41:36.498Z,62.83
2017-11-11T23:44:04.295Z,61.20
2017-11-11T23:46:32.092Z,56.43
2017-11-11T23:48:59.842Z,59.47
2017-11-11T23:51:27.808Z,62.50
2017-11-11T23:53:55.618Z,83.57
2017-11-11T23:56:24.178Z,53.47
2017-11-11T23:58:51.920Z,55.93
